< < Back
Terminal Aerodrome Forecast


Current Version              Previous Versions:   1  2  3  4  5  6  7  8  9  

Terminal Aerodrome Forecast

567
FTUS42 KILM 271427 AAB
TAFFLO
TAF AMD
KFLO 271427Z 2714/2812 14003KT P6SM BKN010
     FM271530 14003KT P6SM SCT030 SCT250
     FM272000 15006KT P6SM SCT040 SCT250
     FM280000 19003KT P6SM BKN150=



Latest METAR

585
SAUS70 KWBC 272200 RRD
MTRFLO
METAR KFLO 272153Z 13006KT 10SM CLR 32/19 A2998 RMK AO2 SLP150
T03220189


USA.gov is the U.S. government's official web portal to all federal, state and local government web resources and services.